Time;durP1;ratioP1;P1;durP2;ratioP2;P2;SDS_P1;SDS_P2;PMS_P1;PMS_P2;Temp;Humidity;BMP_temperature;BMP_pressure;BME280_temperature;BME280_humidity;BME280_pressure;Samples;Min_cycle;Max_cycle;Signal;HPM_P1;HPM_P2
2022/04/19 00:02:01;;;;;;;;;;;11.70;99.90;;;;;;5018718;28;19921;-84
2022/04/19 00:04:26;;;;;;;;;;;11.70;99.90;;;;;;5014419;28;20015;-83
2022/04/19 00:06:52;;;;;;;;;;;11.70;99.90;;;;;;5016503;28;19956;-83
2022/04/19 00:09:17;;;;;;;;;;;11.60;99.90;;;;;;5015345;28;19920;-83
2022/04/19 00:11:43;;;;;;;;;;;11.60;99.90;;;;;;5016486;28;19921;-83
2022/04/19 00:14:08;;;;;;;;;;;11.60;99.90;;;;;;4998210;28;19913;-83
2022/04/19 00:16:37;;;;;;;;;;;11.50;99.90;;;;;;5014493;28;19957;-83
2022/04/19 00:19:02;;;;;;;;;;;11.50;99.90;;;;;;5012209;28;19952;-83
2022/04/19 00:21:30;;;;;;;;;;;11.40;99.90;;;;;;5014313;28;19921;-84
2022/04/19 00:23:56;;;;;;;;;;;11.40;99.90;;;;;;5016054;28;19920;-83
2022/04/19 00:26:21;;;;;;;;;;;11.40;99.90;;;;;;5014013;28;19914;-84
2022/04/19 00:28:47;;;;;;;;;;;11.40;99.90;;;;;;4998091;28;19956;-83
2022/04/19 00:31:12;;;;;;;;;;;11.30;99.90;;;;;;5013231;28;20279;-83
2022/04/19 00:33:44;;;;;;;;;;;11.30;99.90;;;;;;5014388;28;19928;-83
2022/04/19 00:36:10;;;;;;;;;;;11.30;99.90;;;;;;5012210;28;19944;-83
2022/04/19 00:38:35;;;;;;;;;;;11.30;99.90;;;;;;5013426;28;20029;-84
2022/04/19 00:41:01;;;;;;;;;;;11.20;99.90;;;;;;5016515;28;19944;-83
2022/04/19 00:43:26;;;;;;;;;;;11.20;99.90;;;;;;5014698;28;19917;-83
2022/04/19 00:45:52;;;;;;;;;;;11.10;99.90;;;;;;5014522;28;20019;-83
2022/04/19 00:48:21;;;;;;;;;;;11.10;99.90;;;;;;5014893;28;19914;-83
2022/04/19 00:50:50;;;;;;;;;;;11.10;99.90;;;;;;4999414;28;19914;-83
2022/04/19 00:53:17;;;;;;;;;;;11.00;99.90;;;;;;5012989;28;19920;-83
2022/04/19 00:55:42;;;;;;;;;;;11.00;99.90;;;;;;5017390;28;19940;-83
2022/04/19 00:58:11;;;;;;;;;;;10.90;99.90;;;;;;5015165;28;19984;-83
2022/04/19 01:00:36;;;;;;;;;;;10.90;99.90;;;;;;4997858;28;19922;-83
2022/04/19 01:03:02;;;;;;;;;;;10.80;99.90;;;;;;5015119;28;19928;-83
2022/04/19 01:05:27;;;;;;;;;;;10.80;99.90;;;;;;5017582;28;19918;-83
2022/04/19 01:07:53;;;;;;;;;;;10.80;99.90;;;;;;5020610;28;19914;-83
2022/04/19 01:10:18;;;;;;;;;;;10.70;99.90;;;;;;5002498;28;19913;-83
2022/04/19 01:15:28;;;;;;;;;;;10.60;99.90;;;;;;5018874;28;19997;-83
2022/04/19 01:17:56;;;;;;;;;;;10.60;99.90;;;;;;5018021;28;19949;-83
2022/04/19 01:20:22;;;;;;;;;;;10.60;99.90;;;;;;5019493;28;20001;-83
2022/04/19 01:22:48;;;;;;;;;;;10.50;99.90;;;;;;5018749;28;19953;-83
2022/04/19 01:25:14;;;;;;;;;;;10.50;99.90;;;;;;5022048;28;19922;-83
2022/04/19 01:27:40;;;;;;;;;;;10.50;99.90;;;;;;5020071;28;20412;-83
2022/04/19 01:30:08;;;;;;;;;;;10.50;99.90;;;;;;5020208;28;19914;-83
2022/04/19 01:32:34;;;;;;;;;;;10.40;99.90;;;;;;5001994;28;20379;-83
2022/04/19 01:35:09;;;;;;;;;;;10.40;99.90;;;;;;5003252;28;20000;-83
2022/04/19 01:37:35;;;;;;;;;;;10.30;99.90;;;;;;5013972;28;19918;-83
2022/04/19 01:40:17;;;;;;;;;;;10.30;99.90;;;;;;5026835;28;19913;-83
2022/04/19 01:42:46;;;;;;;;;;;10.30;99.90;;;;;;5028737;28;19973;-83
2022/04/19 01:45:12;;;;;;;;;;;10.20;99.90;;;;;;5022115;28;19921;-83
2022/04/19 01:47:39;;;;;;;;;;;10.20;99.90;;;;;;5018442;28;19917;-83
2022/04/19 01:50:09;;;;;;;;;;;10.20;99.90;;;;;;5020408;28;19913;-83
2022/04/19 01:52:35;;;;;;;;;;;10.10;99.90;;;;;;5018540;28;19913;-83
2022/04/19 01:55:00;;;;;;;;;;;10.10;99.90;;;;;;5020176;28;19941;-83
2022/04/19 01:57:26;;;;;;;;;;;10.10;99.90;;;;;;4999963;28;19996;-83
2022/04/19 01:59:53;;;;;;;;;;;10.10;99.90;;;;;;5018647;28;19937;-83
2022/04/19 02:02:18;;;;;;;;;;;10.10;99.90;;;;;;5018431;28;19941;-83
2022/04/19 02:04:44;;;;;;;;;;;10.10;99.90;;;;;;5017956;28;19922;-83
2022/04/19 02:07:09;;;;;;;;;;;10.00;99.90;;;;;;5023974;28;19913;-83
2022/04/19 02:09:35;;;;;;;;;;;10.00;99.90;;;;;;5016259;28;19914;-82
2022/04/19 02:12:00;;;;;;;;;;;10.00;99.90;;;;;;5018068;28;19914;-83
2022/04/19 02:14:26;;;;;;;;;;;9.90;99.90;;;;;;5017364;28;19913;-83
2022/04/19 02:16:55;;;;;;;;;;;9.90;99.90;;;;;;5017449;28;19968;-83
2022/04/19 02:19:21;;;;;;;;;;;9.90;99.90;;;;;;5016507;28;19979;-83
2022/04/19 02:21:46;;;;;;;;;;;9.80;99.90;;;;;;5020260;28;19913;-83
2022/04/19 02:24:12;;;;;;;;;;;9.80;99.90;;;;;;5020654;28;19929;-83
2022/04/19 02:26:37;;;;;;;;;;;9.80;99.90;;;;;;5018054;28;19947;-83
2022/04/19 02:29:03;;;;;;;;;;;9.80;99.90;;;;;;5018266;28;19918;-83
2022/04/19 02:31:29;;;;;;;;;;;9.80;99.90;;;;;;4999647;28;20003;-83
2022/04/19 02:33:56;;;;;;;;;;;9.80;99.90;;;;;;5019179;28;19924;-83
2022/04/19 02:36:21;;;;;;;;;;;9.70;99.90;;;;;;4998586;28;19981;-83
2022/04/19 02:38:47;;;;;;;;;;;9.70;99.90;;;;;;5017040;28;19949;-83
2022/04/19 02:41:12;;;;;;;;;;;9.70;99.90;;;;;;5019431;28;19948;-83
2022/04/19 02:43:38;;;;;;;;;;;9.70;99.90;;;;;;5017384;28;19917;-83
2022/04/19 02:46:04;;;;;;;;;;;9.60;99.90;;;;;;5018270;28;19917;-83
2022/04/19 02:48:30;;;;;;;;;;;9.60;99.90;;;;;;5017641;28;19928;-83
2022/04/19 02:50:56;;;;;;;;;;;9.60;99.90;;;;;;5017597;28;19918;-83
2022/04/19 02:53:22;;;;;;;;;;;9.50;99.90;;;;;;5017790;28;19924;-83
2022/04/19 02:55:50;;;;;;;;;;;9.50;99.90;;;;;;4999633;28;19914;-83
2022/04/19 02:58:15;;;;;;;;;;;9.40;99.90;;;;;;5021353;28;19921;-83
2022/04/19 03:00:40;;;;;;;;;;;9.40;99.90;;;;;;4998530;28;19947;-83
2022/04/19 03:03:09;;;;;;;;;;;9.30;99.90;;;;;;5019027;28;20373;-83
2022/04/19 03:05:41;;;;;;;;;;;9.30;99.90;;;;;;5016366;28;19936;-82
2022/04/19 03:08:07;;;;;;;;;;;9.30;99.90;;;;;;5017460;28;20013;-83
2022/04/19 03:10:33;;;;;;;;;;;9.20;99.90;;;;;;4998032;28;19920;-83
2022/04/19 03:12:58;;;;;;;;;;;9.20;99.90;;;;;;5017999;28;19921;-83
2022/04/19 03:15:24;;;;;;;;;;;9.20;99.90;;;;;;5017272;28;19913;-83
2022/04/19 03:17:49;;;;;;;;;;;9.20;99.90;;;;;;5015652;28;19914;-83
2022/04/19 03:20:15;;;;;;;;;;;9.20;99.90;;;;;;4999182;28;19920;-83
2022/04/19 03:28:09;;;;;;;;;;;9.00;99.90;;;;;;5017183;28;20009;-83
2022/04/19 03:30:35;;;;;;;;;;;9.10;99.90;;;;;;5017489;28;19949;-83
2022/04/19 03:33:00;;;;;;;;;;;9.00;99.90;;;;;;5017166;28;19936;-83
2022/04/19 03:35:26;;;;;;;;;;;9.00;99.90;;;;;;5016098;28;19953;-83
2022/04/19 03:37:52;;;;;;;;;;;9.00;99.90;;;;;;5016920;28;20352;-83
2022/04/19 03:40:17;;;;;;;;;;;9.00;99.90;;;;;;5015840;28;19935;-83
2022/04/19 03:42:43;;;;;;;;;;;9.00;99.90;;;;;;5015810;28;19953;-83
2022/04/19 03:45:09;;;;;;;;;;;8.90;99.90;;;;;;5018600;28;20298;-83
2022/04/19 03:47:35;;;;;;;;;;;8.90;99.90;;;;;;5016318;28;19913;-83
2022/04/19 03:50:01;;;;;;;;;;;8.90;99.90;;;;;;5001354;28;19964;-83
2022/04/19 03:52:27;;;;;;;;;;;8.90;99.90;;;;;;4999461;28;19998;-83
2022/04/19 03:54:52;;;;;;;;;;;8.90;99.90;;;;;;4999510;28;19921;-83
2022/04/19 03:57:18;;;;;;;;;;;8.80;99.90;;;;;;5016658;28;19917;-83
2022/04/19 03:59:43;;;;;;;;;;;8.80;99.90;;;;;;5018243;28;19949;-83
2022/04/19 04:02:09;;;;;;;;;;;8.80;99.90;;;;;;5016954;28;20289;-83
2022/04/19 04:04:36;;;;;;;;;;;8.80;99.90;;;;;;5000359;28;19977;-83
2022/04/19 04:07:04;;;;;;;;;;;8.80;99.90;;;;;;4997866;28;20417;-84
2022/04/19 04:09:35;;;;;;;;;;;8.70;99.90;;;;;;5016146;28;19917;-84
2022/04/19 04:12:11;;;;;;;;;;;8.70;99.90;;;;;;5000298;28;19952;-84
2022/04/19 04:14:37;;;;;;;;;;;8.60;99.90;;;;;;5000561;28;19909;-84
2022/04/19 04:17:03;;;;;;;;;;;8.60;99.90;;;;;;5015681;28;19974;-83
2022/04/19 04:19:28;;;;;;;;;;;8.60;99.90;;;;;;5015805;28;20000;-83
2022/04/19 04:21:54;;;;;;;;;;;8.50;99.90;;;;;;5016320;28;20046;-83
2022/04/19 04:24:19;;;;;;;;;;;8.50;99.90;;;;;;5017560;28;19913;-83
2022/04/19 04:26:45;;;;;;;;;;;8.40;99.90;;;;;;5017164;28;19920;-84
2022/04/19 04:29:10;;;;;;;;;;;8.40;99.90;;;;;;5002615;28;19898;-84
2022/04/19 04:31:36;;;;;;;;;;;8.30;99.90;;;;;;5016175;28;19909;-82
2022/04/19 04:34:02;;;;;;;;;;;8.20;99.90;;;;;;5016100;28;19924;-82
2022/04/19 04:36:30;;;;;;;;;;;8.20;99.90;;;;;;5016074;28;19945;-83
2022/04/19 04:38:55;;;;;;;;;;;8.20;99.90;;;;;;4997987;28;19914;-84
2022/04/19 04:41:21;;;;;;;;;;;8.10;99.90;;;;;;5003552;28;19920;-84
2022/04/19 04:43:46;;;;;;;;;;;8.20;99.90;;;;;;5020102;28;20068;-84
2022/04/19 04:51:40;;;;;;;;;;;8.30;99.90;;;;;;5020847;28;19919;-84
2022/04/19 04:54:05;;;;;;;;;;;8.40;99.90;;;;;;5020326;28;20012;-84
2022/04/19 04:56:33;;;;;;;;;;;8.40;99.90;;;;;;5000399;28;20440;-84
2022/04/19 04:58:59;;;;;;;;;;;8.50;99.90;;;;;;5001714;28;19914;-84
2022/04/19 05:01:24;;;;;;;;;;;8.50;99.90;;;;;;5002349;28;20344;-85
2022/04/19 05:03:50;;;;;;;;;;;8.50;99.90;;;;;;5002541;28;19924;-84
2022/04/19 05:06:15;;;;;;;;;;;8.50;99.90;;;;;;5020107;28;19929;-84
2022/04/19 05:08:40;;;;;;;;;;;8.60;99.90;;;;;;5021261;28;19985;-82
2022/04/19 05:11:06;;;;;;;;;;;8.60;99.90;;;;;;5023562;28;19913;-84
2022/04/19 05:13:31;;;;;;;;;;;8.70;99.90;;;;;;5029950;28;19913;-84
2022/04/19 05:15:58;;;;;;;;;;;8.80;99.90;;;;;;5028743;28;19920;-84
2022/04/19 05:18:24;;;;;;;;;;;8.90;99.90;;;;;;5020470;28;19920;-83
2022/04/19 05:20:49;;;;;;;;;;;9.00;99.90;;;;;;5019771;28;20346;-84
2022/04/19 05:23:15;;;;;;;;;;;9.10;99.90;;;;;;5031367;28;19917;-84
2022/04/19 05:25:40;;;;;;;;;;;9.30;99.90;;;;;;5029174;28;19923;-84
2022/04/19 05:28:06;;;;;;;;;;;11.80;99.90;;;;;;5021530;28;19972;-84
2022/04/19 05:30:31;;;;;;;;;;;15.90;99.90;;;;;;5001962;28;19967;-85
2022/04/19 05:32:57;;;;;;;;;;;19.40;99.90;;;;;;5019280;28;19917;-85
2022/04/19 05:35:22;;;;;;;;;;;22.20;99.90;;;;;;5019569;28;20072;-85
2022/04/19 05:37:48;;;;;;;;;;;24.30;99.90;;;;;;5015297;28;19914;-86
2022/04/19 05:40:16;;;;;;;;;;;26.20;99.90;;;;;;4998702;28;19940;-85
2022/04/19 05:42:51;;;;;;;;;;;28.30;99.90;;;;;;4996769;28;19923;-86
2022/04/19 05:45:46;;;;;;;;;;;;;;;;;;;;;
2022/04/19 05:51:43;;;;;;;;;;;34.50;99.90;;;;;;5001586;28;19917;-86
2022/04/19 05:54:39;;;;;;;;;;;;;;;;;;;;;
2022/04/19 05:59:56;;;;;;;;;;;39.20;99.90;;;;;;5004733;28;19922;-87
2022/04/19 06:05:08;;;;;;;;;;;40.80;99.90;;;;;;5013260;28;20400;-88
2022/04/19 06:07:41;;;;;;;;;;;41.30;99.90;;;;;;4994807;28;19914;-87
2022/04/19 06:10:07;;;;;;;;;;;41.70;99.90;;;;;;5014080;28;19920;-87
2022/04/19 06:12:35;;;;;;;;;;;42.10;99.90;;;;;;5010180;28;20370;-87
2022/04/19 06:15:01;;;;;;;;;;;42.60;99.90;;;;;;5001728;28;19929;-87
2022/04/19 06:17:32;;;;;;;;;;;43.10;99.90;;;;;;5014427;28;19968;-84
2022/04/19 06:19:58;;;;;;;;;;;43.40;99.90;;;;;;5013758;28;19913;-85
2022/04/19 06:22:23;;;;;;;;;;;43.70;99.90;;;;;;5014960;28;19953;-86
2022/04/19 06:24:49;;;;;;;;;;;44.00;99.90;;;;;;5013533;28;20337;-86
2022/04/19 06:27:14;;;;;;;;;;;44.30;99.90;;;;;;5015622;28;19918;-86
2022/04/19 06:29:40;;;;;;;;;;;44.60;99.90;;;;;;5014747;28;19921;-86
2022/04/19 06:32:11;;;;;;;;;;;44.70;99.90;;;;;;5009267;28;19917;-86
2022/04/19 06:34:37;;;;;;;;;;;45.00;99.90;;;;;;5014577;28;20297;-87
2022/04/19 06:37:05;;;;;;;;;;;45.50;99.90;;;;;;5012580;28;19922;-87
2022/04/19 06:39:30;;;;;;;;;;;45.80;99.90;;;;;;4999235;28;19913;-86
2022/04/19 06:41:56;;;;;;;;;;;46.20;99.90;;;;;;5012282;28;19935;-86
2022/04/19 06:44:21;;;;;;;;;;;46.50;99.90;;;;;;4994865;28;19929;-87
2022/04/19 06:46:49;;;;;;;;;;;46.60;99.90;;;;;;5011750;28;20028;-87
2022/04/19 06:49:17;;;;;;;;;;;46.60;99.90;;;;;;5007456;28;19917;-86
2022/04/19 06:51:45;;;;;;;;;;;45.90;99.90;;;;;;4992046;28;19922;-86
2022/04/19 06:54:15;;;;;;;;;;;45.90;99.90;;;;;;5013311;28;19960;-86
2022/04/19 06:56:45;;;;;;;;;;;46.00;99.90;;;;;;4976572;28;23161;-85
2022/04/19 06:59:14;;;;;;;;;;;46.40;99.90;;;;;;5011954;28;19968;-86
2022/04/19 07:01:43;;;;;;;;;;;45.40;99.90;;;;;;5010867;28;20369;-86
2022/04/19 07:04:09;;;;;;;;;;;46.30;99.90;;;;;;5012444;28;20370;-87
2022/04/19 07:06:35;;;;;;;;;;;46.80;99.90;;;;;;5012859;28;20339;-88
2022/04/19 07:09:00;;;;;;;;;;;47.40;99.90;;;;;;5009342;28;19922;-86
2022/04/19 07:11:31;;;;;;;;;;;47.90;99.90;;;;;;4995829;28;19913;-87
2022/04/19 07:14:06;;;;;;;;;;;48.20;99.90;;;;;;5024933;28;20017;-87
2022/04/19 07:16:35;;;;;;;;;;;48.60;99.90;;;;;;5000122;28;20309;-87
2022/04/19 07:19:08;;;;;;;;;;;49.10;99.90;;;;;;4994592;28;19913;-87
2022/04/19 07:27:35;;;;;;;;;;;49.50;99.90;;;;;;5009358;28;19919;-87
2022/04/19 07:30:28;;;;;;;;;;;;;;;;;;;;;
2022/04/19 07:33:17;;;;;;;;;;;49.10;99.90;;;;;;5008430;28;20391;-87
2022/04/19 07:41:26;;;;;;;;;;;49.80;99.90;;;;;;5003695;28;20333;-85
2022/04/19 07:43:52;;;;;;;;;;;49.40;99.90;;;;;;5009519;28;19913;-85
2022/04/19 07:46:18;;;;;;;;;;;48.20;99.90;;;;;;5012663;28;20270;-85
2022/04/19 07:48:46;;;;;;;;;;;47.90;99.90;;;;;;5010588;28;19917;-86
2022/04/19 07:51:13;;;;;;;;;;;47.30;99.90;;;;;;5009848;28;19913;-86
2022/04/19 07:53:38;;;;;;;;;;;47.40;99.90;;;;;;5011650;28;19952;-86
2022/04/19 07:56:04;;;;;;;;;;;47.40;99.90;;;;;;5011739;28;19957;-86
2022/04/19 07:58:30;;;;;;;;;;;46.50;99.90;;;;;;5008676;28;19913;-85
2022/04/19 08:00:55;;;;;;;;;;;45.90;99.90;;;;;;5011085;28;19918;-85
2022/04/19 08:03:21;;;;;;;;;;;45.10;99.90;;;;;;4990138;28;19925;-86
2022/04/19 08:05:46;;;;;;;;;;;45.40;99.90;;;;;;5012797;28;19959;-85
2022/04/19 08:08:12;;;;;;;;;;;45.80;99.90;;;;;;5012016;28;19917;-85
2022/04/19 08:10:37;;;;;;;;;;;44.80;99.90;;;;;;5012255;28;20598;-85
2022/04/19 08:13:04;;;;;;;;;;;44.10;99.90;;;;;;5016077;28;20293;-86
2022/04/19 08:15:30;;;;;;;;;;;45.00;99.90;;;;;;5019749;28;20369;-85
2022/04/19 08:17:57;;;;;;;;;;;45.20;99.90;;;;;;5001529;28;19960;-85
2022/04/19 08:20:22;;;;;;;;;;;46.00;99.90;;;;;;5020300;28;19944;-85
2022/04/19 08:22:48;;;;;;;;;;;45.00;99.90;;;;;;5021385;28;19909;-85
2022/04/19 08:25:14;;;;;;;;;;;44.70;99.90;;;;;;5020930;28;19925;-85
2022/04/19 08:27:42;;;;;;;;;;;44.70;99.90;;;;;;5019894;28;19976;-85
2022/04/19 08:30:08;;;;;;;;;;;45.40;99.90;;;;;;5019498;28;19913;-85
2022/04/19 08:32:34;;;;;;;;;;;43.70;99.90;;;;;;5015866;28;19959;-85
2022/04/19 08:35:00;;;;;;;;;;;44.20;99.90;;;;;;4999213;28;20441;-85
2022/04/19 08:37:32;;;;;;;;;;;44.20;99.90;;;;;;5018390;28;20293;-85
2022/04/19 08:39:57;;;;;;;;;;;44.10;99.90;;;;;;5015438;28;20396;-85
2022/04/19 08:42:23;;;;;;;;;;;43.40;99.90;;;;;;5015585;28;19917;-85
2022/04/19 08:44:48;;;;;;;;;;;43.20;99.90;;;;;;5004465;28;19921;-85
2022/04/19 08:47:14;;;;;;;;;;;44.10;99.90;;;;;;5015996;28;19913;-85
2022/04/19 08:49:41;;;;;;;;;;;44.90;99.90;;;;;;5016438;28;20008;-86
2022/04/19 08:52:07;;;;;;;;;;;45.10;99.90;;;;;;5011488;28;19917;-86
2022/04/19 08:57:29;;;;;;;;;;;44.10;99.90;;;;;;5012443;28;19920;-85
2022/04/19 08:59:55;;;;;;;;;;;43.30;99.90;;;;;;5012457;28;19963;-85
2022/04/19 09:02:24;;;;;;;;;;;43.80;99.90;;;;;;5013242;28;19922;-85
2022/04/19 09:04:50;;;;;;;;;;;44.30;99.90;;;;;;5015634;28;19967;-85
2022/04/19 09:07:19;;;;;;;;;;;43.60;99.90;;;;;;5013707;28;19935;-85
2022/04/19 09:09:58;;;;;;;;;;;43.30;99.90;;;;;;5017491;28;19921;-85
2022/04/19 09:12:24;;;;;;;;;;;42.50;99.90;;;;;;5012277;28;19909;-86
2022/04/19 09:15:00;;;;;;;;;;;42.80;99.90;;;;;;5007137;28;19913;-86
2022/04/19 09:17:32;;;;;;;;;;;42.30;99.90;;;;;;5012553;28;19945;-87
2022/04/19 09:20:27;;;;;;;;;;;43.40;99.90;;;;;;4995573;28;19916;-86
2022/04/19 09:23:00;;;;;;;;;;;43.90;99.90;;;;;;5003358;28;19944;-87
2022/04/19 09:25:25;;;;;;;;;;;43.70;99.90;;;;;;5000383;28;20374;-87
2022/04/19 09:27:53;;;;;;;;;;;44.30;99.90;;;;;;4994617;28;19968;-87
2022/04/19 09:30:21;;;;;;;;;;;44.20;99.90;;;;;;5007709;28;19914;-87
2022/04/19 09:33:05;;;;;;;;;;;44.20;99.90;;;;;;5012512;28;19910;-86
2022/04/19 09:35:32;;;;;;;;;;;44.20;99.90;;;;;;5007664;28;19918;-87
2022/04/19 09:38:00;;;;;;;;;;;44.20;99.90;;;;;;5016521;28;19909;-87
2022/04/19 09:40:28;;;;;;;;;;;43.90;99.90;;;;;;5012283;28;20413;-87
2022/04/19 09:42:54;;;;;;;;;;;43.10;99.90;;;;;;5010462;28;19905;-87
2022/04/19 09:45:20;;;;;;;;;;;41.10;99.90;;;;;;5012296;28;20385;-86
2022/04/19 09:47:49;;;;;;;;;;;40.30;99.90;;;;;;4993536;28;19909;-86
2022/04/19 09:50:15;;;;;;;;;;;39.80;99.90;;;;;;5009740;28;19925;-86
2022/04/19 09:52:48;;;;;;;;;;;39.80;99.90;;;;;;5010644;28;19913;-86
2022/04/19 09:55:14;;;;;;;;;;;38.30;99.90;;;;;;5013753;28;19914;-86
2022/04/19 09:57:41;;;;;;;;;;;38.40;99.90;;;;;;5011855;28;20350;-86
2022/04/19 10:00:07;;;;;;;;;;;38.90;99.90;;;;;;5011235;28;19920;-86
2022/04/19 10:08:18;;;;;;;;;;;39.70;99.90;;;;;;5010826;28;20469;-86
2022/04/19 10:10:45;;;;;;;;;;;39.50;99.90;;;;;;5011528;28;19933;-86
2022/04/19 10:13:10;;;;;;;;;;;38.80;99.90;;;;;;5012220;28;19917;-86
2022/04/19 10:15:37;;;;;;;;;;;38.00;99.90;;;;;;5015428;28;19917;-85
2022/04/19 10:18:06;;;;;;;;;;;38.10;99.90;;;;;;5015107;28;19921;-86
2022/04/19 10:20:32;;;;;;;;;;;38.70;99.90;;;;;;5010279;28;19913;-85
2022/04/19 10:23:05;;;;;;;;;;;38.70;99.90;;;;;;5017151;28;19952;-84
2022/04/19 10:25:40;;;;;;;;;;;39.20;99.90;;;;;;5015505;28;20133;-85
2022/04/19 10:28:06;;;;;;;;;;;39.60;99.90;;;;;;5012149;28;20000;-86
2022/04/19 10:30:33;;;;;;;;;;;38.90;99.90;;;;;;4996076;28;20337;-86
2022/04/19 10:33:00;;;;;;;;;;;38.10;99.90;;;;;;5010691;28;19936;-86
2022/04/19 10:35:25;;;;;;;;;;;38.00;99.90;;;;;;4994806;28;19916;-86
2022/04/19 10:38:09;;;;;;;;;;;38.00;99.90;;;;;;5016217;28;19914;-85
2022/04/19 10:40:51;;;;;;;;;;;37.30;99.90;;;;;;4998176;28;20359;-85
2022/04/19 10:43:16;;;;;;;;;;;36.80;99.90;;;;;;4992419;28;19909;-86
2022/04/19 10:45:42;;;;;;;;;;;37.50;99.90;;;;;;4996567;28;19913;-85
2022/04/19 10:48:08;;;;;;;;;;;37.50;99.90;;;;;;4994068;28;20011;-84
2022/04/19 10:50:35;;;;;;;;;;;38.30;99.90;;;;;;5014557;28;19909;-85
2022/04/19 10:53:04;;;;;;;;;;;39.30;99.90;;;;;;4998044;28;19948;-84
2022/04/19 10:55:31;;;;;;;;;;;38.40;99.90;;;;;;4996715;28;19955;-84
2022/04/19 10:58:06;;;;;;;;;;;37.50;99.90;;;;;;5005670;28;19909;-84
2022/04/19 11:00:34;;;;;;;;;;;36.60;99.90;;;;;;4990908;28;19924;-84
2022/04/19 11:03:01;;;;;;;;;;;36.50;99.90;;;;;;5011732;28;19941;-84
2022/04/19 11:05:45;;;;;;;;;;;36.90;99.90;;;;;;4996630;28;20520;-85
2022/04/19 11:08:26;;;;;;;;;;;37.20;99.90;;;;;;5009639;28;19921;-85
2022/04/19 11:10:54;;;;;;;;;;;37.20;99.90;;;;;;5011634;28;19944;-84
2022/04/19 11:13:20;;;;;;;;;;;37.20;99.90;;;;;;5013946;28;20345;-85
2022/04/19 11:15:59;;;;;;;;;;;37.50;99.90;;;;;;5015306;28;20044;-85
2022/04/19 11:18:25;;;;;;;;;;;37.20;99.90;;;;;;5015175;28;19959;-84
2022/04/19 11:20:52;;;;;;;;;;;36.00;99.90;;;;;;5008158;28;20453;-84
2022/04/19 11:23:22;;;;;;;;;;;35.20;99.90;;;;;;4997486;28;20233;-84
2022/04/19 11:25:48;;;;;;;;;;;35.20;99.90;;;;;;5010548;28;19979;-84
2022/04/19 11:28:22;;;;;;;;;;;35.20;99.90;;;;;;5004564;28;19929;-84
2022/04/19 11:30:57;;;;;;;;;;;34.00;99.90;;;;;;5010373;28;19917;-84
2022/04/19 11:33:26;;;;;;;;;;;33.80;99.90;;;;;;5012476;28;19920;-84
2022/04/19 11:35:57;;;;;;;;;;;34.40;99.90;;;;;;5016867;28;20004;-84
2022/04/19 11:38:22;;;;;;;;;;;34.80;99.90;;;;;;5009179;28;19989;-84
2022/04/19 11:49:05;;;;;;;;;;;35.50;99.90;;;;;;5019810;28;19936;-86
2022/04/19 11:51:32;;;;;;;;;;;35.40;99.90;;;;;;5017880;28;20071;-85
2022/04/19 11:53:57;;;;;;;;;;;35.70;99.90;;;;;;5019025;28;19978;-84
2022/04/19 11:56:23;;;;;;;;;;;35.40;99.90;;;;;;5011421;28;19921;-84
2022/04/19 11:58:53;;;;;;;;;;;35.70;99.90;;;;;;5018320;28;19918;-84
2022/04/19 12:01:20;;;;;;;;;;;35.20;99.90;;;;;;5019398;28;19921;-84
2022/04/19 12:03:45;;;;;;;;;;;34.80;99.90;;;;;;5002849;28;19913;-85
2022/04/19 12:06:15;;;;;;;;;;;35.20;99.90;;;;;;5019541;28;20345;-84
2022/04/19 12:08:41;;;;;;;;;;;34.80;99.90;;;;;;5017819;28;19921;-84
2022/04/19 12:11:12;;;;;;;;;;;34.80;99.90;;;;;;5016756;28;19921;-84
2022/04/19 12:13:38;;;;;;;;;;;34.40;99.90;;;;;;4996896;28;19917;-84
2022/04/19 12:16:04;;;;;;;;;;;34.30;99.90;;;;;;5013808;28;19925;-85
2022/04/19 12:18:32;;;;;;;;;;;34.90;99.90;;;;;;5016375;28;19913;-84
2022/04/19 12:20:58;;;;;;;;;;;34.60;99.90;;;;;;5010578;28;19914;-85
2022/04/19 12:23:23;;;;;;;;;;;34.60;99.90;;;;;;5015572;28;19921;-84
2022/04/19 12:25:58;;;;;;;;;;;34.60;99.90;;;;;;5011816;28;19923;-85
2022/04/19 12:28:33;;;;;;;;;;;34.80;99.90;;;;;;5012615;28;19978;-85
2022/04/19 12:30:58;;;;;;;;;;;34.30;99.90;;;;;;5013768;28;19981;-84
2022/04/19 12:33:24;;;;;;;;;;;34.30;99.90;;;;;;5011897;28;20385;-84
2022/04/19 12:35:53;;;;;;;;;;;33.80;99.90;;;;;;5016709;28;19924;-85
2022/04/19 12:38:18;;;;;;;;;;;33.60;99.90;;;;;;5015001;28;19913;-84
2022/04/19 12:40:44;;;;;;;;;;;33.80;99.90;;;;;;5016042;28;19944;-84
2022/04/19 12:43:10;;;;;;;;;;;33.70;99.90;;;;;;5013207;28;19913;-84
2022/04/19 12:45:37;;;;;;;;;;;33.90;99.90;;;;;;5011895;28;19944;-84
2022/04/19 12:48:03;;;;;;;;;;;33.70;99.90;;;;;;5012476;28;19928;-84
2022/04/19 12:50:29;;;;;;;;;;;33.30;99.90;;;;;;5013061;28;19944;-84
2022/04/19 12:52:55;;;;;;;;;;;33.20;99.90;;;;;;5018926;28;19914;-84
2022/04/19 12:55:31;;;;;;;;;;;33.60;99.90;;;;;;5013190;28;20008;-84
2022/04/19 12:58:07;;;;;;;;;;;34.00;99.90;;;;;;5018053;28;19917;-84
2022/04/19 13:00:33;;;;;;;;;;;34.10;99.90;;;;;;5015660;28;19949;-85
2022/04/19 13:02:58;;;;;;;;;;;33.30;99.90;;;;;;5006843;28;20298;-84
2022/04/19 13:12:16;;;;;;;;;;;32.90;99.90;;;;;;5004711;28;20316;-84
2022/04/19 13:13:37;;;;;;;;;;;32.00;99.90;;;;;;5021834;28;19929;-84
2022/04/19 13:16:03;;;;;;;;;;;31.00;99.90;;;;;;5021155;28;19913;-84
2022/04/19 13:18:28;;;;;;;;;;;30.70;99.90;;;;;;5020313;28;19925;-84
2022/04/19 13:20:54;;;;;;;;;;;31.00;99.90;;;;;;5025680;28;19976;-84
2022/04/19 13:23:19;;;;;;;;;;;31.40;99.90;;;;;;5023315;28;19910;-84
2022/04/19 13:25:45;;;;;;;;;;;30.90;99.90;;;;;;5025724;28;19925;-85
2022/04/19 13:28:10;;;;;;;;;;;30.80;99.90;;;;;;5019641;28;19920;-84
2022/04/19 13:30:38;;;;;;;;;;;30.80;99.90;;;;;;5016798;28;20673;-84
2022/04/19 13:33:05;;;;;;;;;;;30.80;99.90;;;;;;5017742;28;20449;-84
2022/04/19 13:35:30;;;;;;;;;;;30.70;99.90;;;;;;5015922;28;19925;-83
2022/04/19 13:40:39;;;;;;;;;;;31.00;99.90;;;;;;5016890;28;19925;-84
2022/04/19 13:43:05;;;;;;;;;;;30.40;99.90;;;;;;5020083;28;19914;-85
2022/04/19 13:45:33;;;;;;;;;;;30.60;99.90;;;;;;5017534;28;19921;-84
2022/04/19 13:47:59;;;;;;;;;;;30.60;99.90;;;;;;5018838;28;19913;-84
2022/04/19 13:50:24;;;;;;;;;;;30.20;99.90;;;;;;5002463;28;20019;-83
2022/04/19 13:52:50;;;;;;;;;;;29.90;99.90;;;;;;5017436;28;19981;-84
2022/04/19 13:55:18;;;;;;;;;;;29.30;99.90;;;;;;5017678;28;19920;-84
2022/04/19 13:57:44;;;;;;;;;;;28.70;99.00;;;;;;5016978;28;20098;-83
2022/04/19 14:00:13;;;;;;;;;;;28.90;99.70;;;;;;5024164;28;19914;-84
2022/04/19 14:02:39;;;;;;;;;;;28.40;99.30;;;;;;5025805;28;19964;-84
2022/04/19 14:05:06;;;;;;;;;;;28.30;98.80;;;;;;5002508;28;19917;-84
2022/04/19 14:07:31;;;;;;;;;;;28.60;99.80;;;;;;5014725;28;19909;-85
2022/04/19 14:09:57;;;;;;;;;;;28.70;99.90;;;;;;5017474;28;20401;-84
2022/04/19 14:12:22;;;;;;;;;;;28.70;99.90;;;;;;5014641;28;19929;-84
2022/04/19 14:14:48;;;;;;;;;;;28.60;99.90;;;;;;5003474;28;19919;-84
2022/04/19 14:17:13;;;;;;;;;;;28.40;99.90;;;;;;5017678;28;20047;-84
2022/04/19 14:19:39;;;;;;;;;;;28.40;99.90;;;;;;5023287;28;19924;-83
2022/04/19 14:22:05;;;;;;;;;;;28.10;99.90;;;;;;5021350;28;19935;-83
2022/04/19 14:24:30;;;;;;;;;;;27.90;99.90;;;;;;5022676;28;19988;-84
2022/04/19 14:26:56;;;;;;;;;;;28.10;99.90;;;;;;5018955;28;19933;-85
2022/04/19 14:34:51;;;;;;;;;;;27.70;99.90;;;;;;5019775;28;19940;-85
2022/04/19 14:37:17;;;;;;;;;;;27.40;99.90;;;;;;5024888;28;20000;-86
2022/04/19 14:39:42;;;;;;;;;;;27.10;99.90;;;;;;5023403;28;19913;-84
2022/04/19 14:42:07;;;;;;;;;;;27.00;99.90;;;;;;5012928;28;20341;-84
2022/04/19 14:44:33;;;;;;;;;;;26.70;99.90;;;;;;5021956;28;19917;-85
2022/04/19 14:47:00;;;;;;;;;;;26.30;99.90;;;;;;5014332;28;19922;-84
2022/04/19 14:49:25;;;;;;;;;;;25.60;99.70;;;;;;5008672;28;19925;-84
2022/04/19 14:54:35;;;;;;;;;;;25.20;99.70;;;;;;5021806;28;20051;-84
2022/04/19 14:57:00;;;;;;;;;;;25.40;99.90;;;;;;5021720;28;19941;-83
2022/04/19 14:59:26;;;;;;;;;;;25.00;99.90;;;;;;5003420;28;19920;-83
2022/04/19 15:01:51;;;;;;;;;;;24.70;99.10;;;;;;5022418;28;20370;-85
2022/04/19 15:04:17;;;;;;;;;;;24.50;98.90;;;;;;5024526;28;19909;-85
2022/04/19 15:06:42;;;;;;;;;;;24.50;99.80;;;;;;5021597;28;19977;-85
2022/04/19 15:09:08;;;;;;;;;;;24.60;99.90;;;;;;5015207;28;20398;-85
2022/04/19 15:11:34;;;;;;;;;;;24.40;99.90;;;;;;5022765;28;19953;-85
2022/04/19 15:13:59;;;;;;;;;;;24.50;99.90;;;;;;5014017;28;19968;-85
2022/04/19 15:16:25;;;;;;;;;;;24.60;99.90;;;;;;5021719;28;19913;-85
2022/04/19 15:18:51;;;;;;;;;;;24.50;99.90;;;;;;5021141;28;19918;-85
2022/04/19 15:21:16;;;;;;;;;;;24.50;99.90;;;;;;5020215;28;19910;-85
2022/04/19 15:23:42;;;;;;;;;;;24.50;99.90;;;;;;5001546;28;19920;-85
2022/04/19 15:26:07;;;;;;;;;;;24.30;99.90;;;;;;5013204;28;19920;-84
2022/04/19 15:28:33;;;;;;;;;;;24.10;99.90;;;;;;5020458;28;20502;-84
2022/04/19 15:31:02;;;;;;;;;;;24.10;99.90;;;;;;5014454;28;19913;-85
2022/04/19 15:33:28;;;;;;;;;;;24.20;99.90;;;;;;5015066;28;19909;-84